Time;durP1;ratioP1;P1;durP2;ratioP2;P2;SDS_P1;SDS_P2;PMS_P1;PMS_P2;Temp;Humidity;BMP_temperature;BMP_pressure;BME280_temperature;BME280_humidity;BME280_pressure;Samples;Min_cycle;Max_cycle;Signal;HPM_P1;HPM_P2
2023/06/10 00:00:15;;;;;;;1.53;1.43;;;15.50;99.20;;;;;;5055589;28;20459;-72
2023/06/10 00:02:42;;;;;;;1.10;1.00;;;15.50;99.30;;;;;;5055066;28;20408;-73
2023/06/10 00:05:08;;;;;;;2.20;1.83;;;15.50;99.40;;;;;;5055219;28;20871;-71
2023/06/10 00:07:37;;;;;;;1.10;1.10;;;15.50;99.00;;;;;;5055187;28;20491;-71
2023/06/10 00:10:07;;;;;;;1.70;1.60;;;15.50;99.20;;;;;;5055524;28;20171;-71
2023/06/10 00:12:36;;;;;;;0.60;0.60;;;15.50;99.10;;;;;;5055370;28;20766;-71
2023/06/10 00:15:04;;;;;;;1.50;1.47;;;15.50;98.80;;;;;;5055261;28;20429;-71
2023/06/10 00:17:30;;;;;;;1.43;1.43;;;15.50;98.90;;;;;;5055196;28;20893;-74
2023/06/10 00:19:57;;;;;;;0.90;0.90;;;15.50;98.80;;;;;;5054932;28;20404;-70
2023/06/10 00:22:24;;;;;;;1.07;0.97;;;15.50;98.80;;;;;;5055235;28;20412;-73
2023/06/10 00:24:50;;;;;;;1.40;1.30;;;15.40;98.80;;;;;;5055126;28;20427;-71
2023/06/10 00:27:16;;;;;;;1.87;1.77;;;15.40;99.30;;;;;;5054923;28;20407;-73
2023/06/10 00:29:42;;;;;;;1.70;1.47;;;15.40;99.40;;;;;;5054942;28;20908;-73
2023/06/10 00:32:08;;;;;;;1.27;1.20;;;15.40;99.40;;;;;;5055002;28;20208;-73
2023/06/10 00:34:33;;;;;;;3.90;1.83;;;15.40;99.90;;;;;;5054705;28;20675;-73
2023/06/10 00:36:59;;;;;;;1.57;1.47;;;15.30;99.30;;;;;;5054578;28;20955;-71
2023/06/10 00:39:25;;;;;;;1.33;1.27;;;15.20;99.40;;;;;;5054757;28;20645;-70
2023/06/10 00:41:50;;;;;;;1.10;1.10;;;15.20;99.40;;;;;;5054744;28;20687;-73
2023/06/10 00:44:16;;;;;;;2.90;2.70;;;15.10;99.40;;;;;;5054841;28;20171;-71
2023/06/10 00:46:42;;;;;;;2.30;2.20;;;15.10;99.50;;;;;;5054353;28;20280;-73
2023/06/10 00:49:09;;;;;;;1.23;1.13;;;15.10;99.60;;;;;;5054380;28;20194;-73
2023/06/10 00:51:36;;;;;;;0.80;0.80;;;15.00;99.70;;;;;;5054513;28;20495;-73
2023/06/10 00:54:01;;;;;;;2.93;2.73;;;15.00;99.10;;;;;;5054833;28;20415;-71
2023/06/10 00:56:28;;;;;;;3.50;1.57;;;15.10;99.00;;;;;;5054291;28;20429;-71
2023/06/10 00:58:54;;;;;;;1.73;1.73;;;15.10;99.20;;;;;;5054552;28;20174;-74
2023/06/10 01:01:20;;;;;;;1.70;1.60;;;15.10;99.20;;;;;;5054381;28;20456;-71
2023/06/10 01:03:47;;;;;;;1.10;1.10;;;15.00;99.20;;;;;;5054684;28;20405;-74
2023/06/10 01:06:30;;;;;;;1.13;1.13;;;15.00;99.50;;;;;;5054046;28;20431;-73
2023/06/10 01:09:05;;;;;;;0.80;0.80;;;15.00;99.40;;;;;;5054426;28;20423;-71
2023/06/10 01:11:43;;;;;;;1.60;1.50;;;15.00;99.20;;;;;;5054442;28;20443;-72
2023/06/10 01:14:10;;;;;;;1.13;1.03;;;15.00;99.30;;;;;;5053607;28;20462;-73
2023/06/10 01:16:36;;;;;;;1.40;1.30;;;15.10;99.20;;;;;;5053858;28;20480;-71
2023/06/10 01:19:03;;;;;;;1.40;1.30;;;15.10;99.00;;;;;;5054088;28;20774;-73
2023/06/10 01:21:29;;;;;;;3.17;1.77;;;15.10;98.60;;;;;;5053873;28;20543;-71
2023/06/10 01:23:56;;;;;;;1.90;1.80;;;15.00;98.90;;;;;;5054062;28;21015;-71
2023/06/10 01:26:27;;;;;;;1.10;1.10;;;15.00;98.90;;;;;;5053727;28;20459;-71
2023/06/10 01:29:07;;;;;;;1.13;1.03;;;14.80;99.10;;;;;;5053867;28;20495;-70
2023/06/10 01:31:43;;;;;;;1.80;1.70;;;14.80;99.50;;;;;;5054073;28;20780;-72
2023/06/10 01:34:16;;;;;;;2.17;2.07;;;14.80;99.30;;;;;;5053821;28;20542;-70
2023/06/10 01:36:47;;;;;;;1.50;1.47;;;14.80;99.40;;;;;;5053514;28;20438;-73
2023/06/10 01:39:16;;;;;;;1.93;1.83;;;14.70;99.30;;;;;;5054145;28;20433;-73
2023/06/10 01:41:42;;;;;;;2.30;1.67;;;14.60;99.40;;;;;;5053562;28;20974;-70
2023/06/10 01:44:08;;;;;;;2.53;1.80;;;14.50;99.80;;;;;;5053682;28;20405;-73
2023/06/10 01:46:33;;;;;;;1.90;1.80;;;14.50;99.90;;;;;;5053662;28;20482;-72
2023/06/10 01:48:59;;;;;;;1.43;1.33;;;14.50;99.90;;;;;;5053474;28;20432;-73
2023/06/10 01:51:25;;;;;;;1.53;1.43;;;;;;;;;;5053658;28;20172;-73
2023/06/10 01:53:51;;;;;;;1.60;1.50;;;14.40;99.50;;;;;;5053484;28;20261;-73
2023/06/10 01:56:19;;;;;;;0.77;0.77;;;14.30;99.90;;;;;;5053242;28;20460;-72
2023/06/10 01:58:45;;;;;;;3.10;2.97;;;14.30;99.80;;;;;;5053425;28;20180;-72
2023/06/10 02:01:10;;;;;;;1.47;1.27;;;14.30;99.60;;;;;;5053409;28;20445;-72
2023/06/10 02:03:36;;;;;;;1.73;1.60;;;14.30;99.80;;;;;;5053484;28;20423;-74
2023/06/10 02:06:02;;;;;;;1.30;1.20;;;14.20;99.90;;;;;;5053305;28;20265;-70
2023/06/10 02:08:27;;;;;;;1.53;1.33;;;14.20;99.90;;;;;;5053594;28;20172;-72
2023/06/10 02:10:53;;;;;;;3.13;2.93;;;14.20;99.90;;;;;;5053712;28;20174;-73
2023/06/10 02:13:19;;;;;;;2.13;1.10;;;14.10;99.80;;;;;;5053437;28;20204;-73
2023/06/10 02:15:45;;;;;;;1.67;1.57;;;14.00;99.90;;;;;;5053299;28;20514;-70
2023/06/10 02:18:11;;;;;;;2.30;2.20;;;14.00;99.90;;;;;;5053410;28;20655;-72
2023/06/10 02:20:38;;;;;;;1.57;1.47;;;13.90;99.90;;;;;;5053257;28;20236;-73
2023/06/10 02:23:03;;;;;;;3.23;3.03;;;13.90;99.90;;;;;;5053191;28;20412;-71
2023/06/10 02:25:29;;;;;;;1.60;1.50;;;13.90;99.90;;;;;;5054006;28;20462;-73
2023/06/10 02:27:55;;;;;;;1.67;1.57;;;13.90;99.90;;;;;;5057583;28;20170;-73
2023/06/10 02:30:21;;;;;;;1.33;1.23;;;;;;;;;;5057275;28;20174;-72
2023/06/10 02:32:47;;;;;;;8.03;2.20;;;13.80;99.90;;;;;;5057410;28;20170;-73
2023/06/10 02:35:17;;;;;;;2.27;2.17;;;13.90;99.90;;;;;;5056918;28;20428;-73
2023/06/10 02:37:43;;;;;;;1.73;1.63;;;13.80;99.90;;;;;;5056920;28;20519;-72
2023/06/10 02:40:10;;;;;;;2.90;2.70;;;13.80;99.90;;;;;;5056966;28;20412;-71
2023/06/10 02:42:36;;;;;;;2.80;2.60;;;13.70;99.90;;;;;;5056918;28;20417;-71
2023/06/10 02:45:02;;;;;;;2.37;2.20;;;13.80;99.90;;;;;;5056912;28;20428;-73
2023/06/10 02:47:27;;;;;;;2.00;1.90;;;13.80;99.90;;;;;;5056633;28;20415;-73
2023/06/10 02:49:53;;;;;;;3.20;2.33;;;;;;;;;;5056643;28;20556;-73
2023/06/10 02:52:20;;;;;;;2.20;2.00;;;13.90;99.90;;;;;;5056785;28;20177;-72
2023/06/10 02:54:46;;;;;;;1.67;1.23;;;13.80;99.90;;;;;;5056726;28;20435;-73
2023/06/10 02:57:11;;;;;;;2.23;1.80;;;13.90;99.90;;;;;;5056556;28;20424;-72
2023/06/10 02:59:37;;;;;;;1.13;1.03;;;;;;;;;;5056799;28;20409;-74
2023/06/10 03:02:03;;;;;;;2.80;2.60;;;13.70;99.90;;;;;;5056714;28;20198;-72
2023/06/10 03:04:30;;;;;;;3.00;2.80;;;13.50;99.90;;;;;;5056534;28;20469;-72
2023/06/10 03:06:56;;;;;;;3.60;2.90;;;13.60;99.90;;;;;;5056392;28;20734;-70
2023/06/10 03:09:22;;;;;;;1.57;1.47;;;13.60;99.90;;;;;;5056536;28;20414;-71
2023/06/10 03:11:47;;;;;;;3.27;3.07;;;13.60;99.90;;;;;;5056535;28;20751;-73
2023/06/10 03:14:13;;;;;;;2.83;2.63;;;13.50;99.90;;;;;;5056325;28;20574;-73
2023/06/10 03:16:40;;;;;;;1.30;1.20;;;13.40;99.90;;;;;;5056089;28;20202;-73
2023/06/10 03:19:07;;;;;;;1.43;1.30;;;13.30;99.90;;;;;;5056371;28;20166;-71
2023/06/10 03:21:33;;;;;;;4.10;2.57;;;13.20;99.90;;;;;;5056160;28;20485;-70
2023/06/10 03:23:59;;;;;;;1.57;1.47;;;13.30;99.90;;;;;;5056230;28;20731;-71
2023/06/10 03:26:27;;;;;;;1.80;1.70;;;13.20;99.90;;;;;;5055896;28;20451;-73
2023/06/10 03:28:53;;;;;;;1.67;1.57;;;13.20;99.90;;;;;;5056468;28;20541;-73
2023/06/10 03:31:18;;;;;;;2.00;1.90;;;13.20;99.90;;;;;;5056229;28;20397;-71
2023/06/10 03:33:44;;;;;;;2.40;2.30;;;13.20;99.90;;;;;;5056179;28;20201;-70
2023/06/10 03:36:10;;;;;;;2.90;2.70;;;13.20;99.90;;;;;;5054511;28;20952;-73
2023/06/10 03:38:36;;;;;;;1.60;1.50;;;13.20;99.90;;;;;;5055127;28;20189;-71
2023/06/10 03:41:02;;;;;;;2.83;1.60;;;13.20;99.90;;;;;;5055872;28;20201;-73
2023/06/10 03:43:27;;;;;;;2.10;1.90;;;13.20;99.90;;;;;;5055863;28;20408;-72
2023/06/10 03:45:53;;;;;;;3.13;2.63;;;13.20;99.90;;;;;;5055675;28;20570;-70
2023/06/10 03:48:19;;;;;;;1.10;1.10;;;13.20;99.90;;;;;;5055111;28;20174;-73
2023/06/10 03:50:47;;;;;;;3.53;3.33;;;13.10;99.90;;;;;;5054561;28;20185;-73
2023/06/10 03:53:13;;;;;;;2.10;2.00;;;13.20;99.90;;;;;;5055797;28;20409;-73
2023/06/10 03:55:38;;;;;;;6.70;2.13;;;13.20;99.90;;;;;;5055362;28;20450;-71
2023/06/10 03:58:04;;;;;;;2.70;2.50;;;13.20;99.90;;;;;;5055564;28;20279;-71
2023/06/10 04:00:30;;;;;;;1.83;1.73;;;13.40;99.90;;;;;;5055473;28;20689;-69
2023/06/10 04:02:57;;;;;;;2.80;2.60;;;13.40;99.90;;;;;;5055448;28;20174;-72
2023/06/10 04:05:23;;;;;;;1.87;1.77;;;13.20;99.90;;;;;;5055262;28;20186;-71
2023/06/10 04:07:49;;;;;;;1.60;1.50;;;13.10;99.90;;;;;;5055540;28;20420;-70
2023/06/10 04:10:15;;;;;;;2.07;1.93;;;13.10;99.90;;;;;;5055482;28;20182;-72
2023/06/10 04:12:41;;;;;;;9.67;3.30;;;13.10;99.90;;;;;;5055288;28;20205;-73
2023/06/10 04:15:07;;;;;;;2.93;2.77;;;13.20;99.90;;;;;;5055263;28;20458;-70
2023/06/10 04:17:33;;;;;;;2.30;2.10;;;13.30;99.90;;;;;;5055316;28;20769;-73
2023/06/10 04:20:00;;;;;;;2.90;2.80;;;13.40;99.90;;;;;;5055199;28;20412;-71
2023/06/10 04:22:26;;;;;;;2.00;1.90;;;13.50;99.90;;;;;;5055299;28;20499;-73
2023/06/10 04:24:52;;;;;;;2.10;1.90;;;13.60;99.90;;;;;;5055172;28;20575;-70
2023/06/10 04:27:17;;;;;;;2.27;2.03;;;13.70;99.90;;;;;;5054896;28;20409;-70
2023/06/10 04:29:43;;;;;;;1.83;1.53;;;14.00;99.90;;;;;;5055184;28;20415;-71
2023/06/10 04:32:09;;;;;;;2.40;2.20;;;14.40;99.90;;;;;;5055142;28;20175;-70
2023/06/10 04:34:34;;;;;;;3.00;2.30;;;15.60;99.90;;;;;;5054950;28;20174;-73
2023/06/10 04:37:00;;;;;;;1.57;1.20;;;15.50;99.90;;;;;;5054635;28;20180;-73
2023/06/10 04:39:26;;;;;;;1.20;1.20;;;16.10;99.20;;;;;;5054940;28;20209;-73
2023/06/10 04:41:52;;;;;;;3.63;3.33;;;16.40;98.30;;;;;;5053422;28;20610;-72
2023/06/10 04:44:18;;;;;;;1.37;1.37;;;16.60;97.80;;;;;;5055161;28;20174;-71
2023/06/10 04:46:44;;;;;;;1.90;1.80;;;16.60;97.50;;;;;;5054513;28;20555;-74
2023/06/10 04:49:10;;;;;;;2.60;1.93;;;16.60;97.30;;;;;;5054437;28;20424;-71
2023/06/10 04:51:35;;;;;;;1.73;1.63;;;16.90;97.20;;;;;;5054712;28;20950;-73
2023/06/10 04:54:03;;;;;;;1.23;1.23;;;17.10;96.70;;;;;;5054614;28;20174;-71
2023/06/10 04:56:30;;;;;;;1.83;1.13;;;17.20;95.00;;;;;;5054262;28;20197;-71
2023/06/10 04:58:57;;;;;;;1.20;1.10;;;17.20;95.40;;;;;;5054452;28;20409;-74
2023/06/10 05:01:22;;;;;;;1.63;1.53;;;17.10;95.30;;;;;;5054614;28;20456;-71
2023/06/10 05:03:48;;;;;;;2.83;2.60;;;17.10;95.70;;;;;;5054460;28;20446;-71
2023/06/10 05:06:14;;;;;;;2.37;2.17;;;17.10;95.80;;;;;;5054027;28;20196;-73
2023/06/10 05:08:39;;;;;;;2.30;2.10;;;17.40;96.00;;;;;;5054372;28;20186;-72
2023/06/10 05:11:06;;;;;;;1.50;1.40;;;17.50;95.80;;;;;;5054325;28;20183;-73
2023/06/10 05:13:32;;;;;;;1.10;1.00;;;17.70;95.70;;;;;;5054193;28;20166;-72
2023/06/10 05:15:58;;;;;;;1.97;1.77;;;17.90;95.20;;;;;;5053874;28;20465;-74
2023/06/10 05:18:24;;;;;;;2.20;2.00;;;18.20;94.80;;;;;;5054009;28;20413;-72
2023/06/10 05:20:49;;;;;;;1.80;1.70;;;18.40;94.60;;;;;;5054121;28;20850;-73
2023/06/10 05:23:15;;;;;;;1.57;1.47;;;18.40;94.10;;;;;;5054161;28;20257;-73
2023/06/10 05:25:41;;;;;;;2.00;1.77;;;18.40;94.30;;;;;;5053944;28;20557;-73
2023/06/10 05:28:09;;;;;;;1.23;1.23;;;18.30;94.10;;;;;;5054293;28;20515;-72
2023/06/10 05:30:35;;;;;;;1.40;1.30;;;18.30;94.50;;;;;;5053968;28;20439;-74
2023/06/10 05:33:03;;;;;;;12.03;1.60;;;18.20;94.60;;;;;;5053913;28;20902;-72
2023/06/10 05:35:28;;;;;;;1.83;1.73;;;18.20;95.00;;;;;;5053550;28;20438;-73
2023/06/10 05:37:54;;;;;;;1.80;1.70;;;18.30;95.10;;;;;;5053916;28;20407;-72
2023/06/10 05:40:20;;;;;;;1.20;1.20;;;;;;;;;;5053665;28;20539;-75
2023/06/10 05:42:46;;;;;;;2.43;2.30;;;18.40;94.60;;;;;;5053948;28;20255;-72
2023/06/10 05:45:11;;;;;;;2.23;2.03;;;18.40;95.20;;;;;;5053673;28;20950;-74
2023/06/10 05:47:37;;;;;;;1.93;1.77;;;18.50;94.50;;;;;;5053494;28;20187;-72
2023/06/10 05:50:06;;;;;;;2.70;2.60;;;18.70;94.70;;;;;;5053417;28;20188;-73
2023/06/10 05:52:35;;;;;;;1.80;1.70;;;18.80;94.20;;;;;;5053788;28;20170;-72
2023/06/10 05:55:02;;;;;;;2.30;2.10;;;19.00;94.50;;;;;;5053379;28;20450;-72
2023/06/10 05:57:28;;;;;;;2.33;2.13;;;19.00;94.10;;;;;;5053434;28;20408;-72
2023/06/10 05:59:53;;;;;;;1.87;1.77;;;19.10;94.00;;;;;;5053110;28;20496;-72
2023/06/10 06:02:19;;;;;;;1.40;1.30;;;19.30;94.60;;;;;;5053510;28;20201;-71
2023/06/10 06:04:44;;;;;;;1.47;1.23;;;19.40;94.10;;;;;;5053597;28;20690;-73
2023/06/10 06:07:10;;;;;;;1.53;1.37;;;19.70;93.90;;;;;;5053184;28;20202;-74
2023/06/10 06:09:36;;;;;;;1.53;1.47;;;20.30;93.00;;;;;;5053418;28;20173;-72
2023/06/10 06:12:01;;;;;;;1.50;1.40;;;21.30;92.70;;;;;;5053419;28;20626;-71
2023/06/10 06:14:31;;;;;;;1.77;1.50;;;22.60;91.40;;;;;;5053476;28;20204;-74
2023/06/10 06:16:56;;;;;;;2.20;2.03;;;24.40;88.60;;;;;;5053134;28;20170;-73
2023/06/10 06:19:22;;;;;;;1.80;1.70;;;26.00;81.80;;;;;;5053406;28;20428;-72
2023/06/10 06:21:47;;;;;;;1.60;1.50;;;27.70;71.70;;;;;;5053630;28;20204;-75
2023/06/10 06:24:15;;;;;;;2.70;2.17;;;29.30;66.40;;;;;;5053288;28;20177;-74
2023/06/10 06:26:40;;;;;;;2.10;2.00;;;30.90;59.70;;;;;;5053123;28;20194;-75
2023/06/10 06:29:06;;;;;;;1.57;1.47;;;32.00;55.20;;;;;;5053308;28;20401;-73
2023/06/10 06:31:32;;;;;;;2.20;2.00;;;33.20;52.60;;;;;;5053347;28;20686;-75
2023/06/10 06:33:57;;;;;;;2.03;1.93;;;34.10;48.20;;;;;;5053074;28;20635;-75
2023/06/10 06:36:23;;;;;;;2.47;2.27;;;34.80;45.20;;;;;;5052860;28;20210;-75
2023/06/10 06:38:49;;;;;;;1.70;1.60;;;34.80;44.90;;;;;;5053120;28;20657;-74
2023/06/10 06:41:14;;;;;;;1.50;1.40;;;34.90;43.90;;;;;;5053059;28;20213;-73
2023/06/10 06:43:40;;;;;;;1.67;1.57;;;35.40;42.60;;;;;;5053262;28;20181;-75
2023/06/10 06:46:05;;;;;;;1.77;1.67;;;35.60;43.10;;;;;;5052759;28;20214;-75
2023/06/10 06:48:31;;;;;;;2.10;1.90;;;35.50;41.20;;;;;;5052890;28;20182;-72
2023/06/10 06:50:58;;;;;;;2.13;1.40;;;34.90;43.50;;;;;;5053132;28;20255;-73
2023/06/10 06:53:24;;;;;;;1.97;1.77;;;34.10;43.20;;;;;;5052970;28;20240;-75
2023/06/10 06:55:49;;;;;;;2.00;1.80;;;33.30;43.90;;;;;;5052833;28;20909;-74
2023/06/10 06:58:15;;;;;;;1.80;1.70;;;33.20;44.50;;;;;;5052985;28;20408;-75
2023/06/10 07:00:40;;;;;;;1.90;1.80;;;33.00;44.40;;;;;;5052950;28;20201;-75
2023/06/10 07:03:06;;;;;;;1.70;1.60;;;32.60;44.80;;;;;;5052841;28;20170;-76
2023/06/10 07:05:32;;;;;;;1.60;1.23;;;32.10;46.80;;;;;;5052915;28;20262;-75
2023/06/10 07:07:57;;;;;;;2.37;2.17;;;31.60;48.70;;;;;;5052873;28;20189;-75
2023/06/10 07:10:25;;;;;;;1.53;1.43;;;30.90;49.00;;;;;;5052866;28;20181;-73
2023/06/10 07:12:51;;;;;;;1.37;1.27;;;30.40;48.80;;;;;;5054267;28;20170;-74
2023/06/10 07:15:16;;;;;;;1.33;1.23;;;30.20;50.40;;;;;;5056506;28;20502;-74
2023/06/10 07:17:42;;;;;;;2.33;2.20;;;30.40;50.60;;;;;;5056300;28;20462;-74
2023/06/10 07:20:08;;;;;;;2.00;1.85;;;31.00;50.60;;;;;;5056257;28;20520;-72
2023/06/10 07:22:34;;;;;;;2.23;1.87;;;31.50;50.50;;;;;;5056476;28;20174;-72
2023/06/10 07:24:59;;;;;;;1.70;1.60;;;31.50;49.90;;;;;;5056166;28;20431;-75
2023/06/10 07:27:25;;;;;;;1.73;1.63;;;31.10;49.50;;;;;;5056222;28;20236;-75
2023/06/10 07:29:51;;;;;;;1.70;1.60;;;30.90;50.30;;;;;;5056097;28;20177;-75
2023/06/10 07:32:17;;;;;;;2.27;2.00;;;31.10;49.20;;;;;;5056193;28;20211;-74
2023/06/10 07:34:43;;;;;;;1.67;1.53;;;31.10;45.80;;;;;;5056361;28;20562;-75
2023/06/10 07:37:09;;;;;;;1.90;1.80;;;30.90;46.40;;;;;;5055814;28;20401;-74
2023/06/10 07:39:34;;;;;;;1.90;1.57;;;30.70;48.60;;;;;;5056146;28;20420;-74
2023/06/10 07:42:00;;;;;;;1.90;1.80;;;30.90;45.90;;;;;;5055999;28;20678;-76
2023/06/10 07:44:26;;;;;;;1.90;1.80;;;33.00;49.20;;;;;;5055931;28;20528;-75
2023/06/10 07:46:52;;;;;;;2.00;1.90;;;32.70;46.90;;;;;;5055596;28;20405;-73
2023/06/10 07:49:17;;;;;;;1.60;1.50;;;33.70;44.30;;;;;;5055597;28;20186;-72
2023/06/10 07:51:43;;;;;;;1.90;1.80;;;35.00;41.90;;;;;;5055766;28;20295;-74
2023/06/10 07:54:09;;;;;;;2.30;1.70;;;36.20;39.20;;;;;;5055885;28;20175;-75
2023/06/10 07:56:34;;;;;;;2.60;2.27;;;35.70;39.50;;;;;;5055408;28;20194;-73
2023/06/10 07:59:00;;;;;;;2.13;1.93;;;35.10;39.90;;;;;;5055625;28;20583;-75
2023/06/10 08:01:26;;;;;;;1.97;1.87;;;35.50;40.40;;;;;;5055515;28;20194;-73
2023/06/10 08:03:51;;;;;;;1.47;1.37;;;36.70;38.60;;;;;;5055283;28;20170;-74
2023/06/10 08:06:17;;;;;;;1.80;1.70;;;37.40;35.90;;;;;;5055070;28;20212;-73
2023/06/10 08:08:43;;;;;;;1.87;1.77;;;38.10;36.30;;;;;;5055188;28;20219;-74
2023/06/10 08:11:11;;;;;;;1.93;1.83;;;38.60;34.20;;;;;;5055225;28;20194;-74
2023/06/10 08:13:37;;;;;;;2.00;1.90;;;38.20;33.70;;;;;;5055026;28;20519;-74
2023/06/10 08:16:03;;;;;;;1.70;1.47;;;37.90;35.00;;;;;;5054830;28;20470;-75
2023/06/10 08:18:28;;;;;;;2.70;2.30;;;37.60;34.50;;;;;;5054935;28;20182;-72
2023/06/10 08:20:54;;;;;;;2.43;1.40;;;38.10;34.60;;;;;;5055191;28;20814;-73
2023/06/10 08:23:20;;;;;;;1.53;1.43;;;38.70;32.60;;;;;;5054804;28;20205;-70
2023/06/10 08:25:46;;;;;;;2.53;2.30;;;38.60;33.70;;;;;;5054921;28;20197;-72
2023/06/10 08:28:11;;;;;;;1.73;1.53;;;38.90;32.70;;;;;;5055194;28;20174;-73
2023/06/10 08:30:37;;;;;;;2.13;1.43;;;38.80;32.70;;;;;;5055151;28;20179;-73
2023/06/10 08:33:03;;;;;;;2.13;1.67;;;37.50;35.50;;;;;;5054916;28;20544;-73
2023/06/10 08:35:28;;;;;;;1.93;1.83;;;36.30;33.30;;;;;;5054620;28;20690;-70
2023/06/10 08:37:54;;;;;;;2.43;2.10;;;34.90;36.40;;;;;;5054910;28;20182;-71
2023/06/10 08:40:19;;;;;;;3.97;1.30;;;34.40;36.60;;;;;;5054946;28;20179;-72
2023/06/10 08:42:48;;;;;;;2.60;2.40;;;33.70;35.80;;;;;;5054666;28;20193;-72
2023/06/10 08:45:20;;;;;;;2.90;2.20;;;31.60;40.90;;;;;;5054799;28;20229;-70
2023/06/10 08:47:49;;;;;;;1.63;1.53;;;30.20;44.10;;;;;;5055141;28;20408;-71
2023/06/10 08:50:16;;;;;;;1.50;1.30;;;30.50;41.30;;;;;;5054600;28;20428;-74
2023/06/10 08:52:44;;;;;;;2.70;1.70;;;31.20;40.40;;;;;;5054766;28;20451;-75
2023/06/10 08:55:22;;;;;;;2.00;1.73;;;32.40;40.10;;;;;;5054559;28;20436;-74
2023/06/10 08:57:48;;;;;;;1.93;1.77;;;33.50;40.10;;;;;;5054489;28;20428;-73
2023/06/10 09:00:16;;;;;;;1.63;1.53;;;33.30;36.70;;;;;;5054373;28;20412;-73
2023/06/10 09:02:43;;;;;;;1.80;1.70;;;32.10;38.70;;;;;;5054375;28;20884;-74
2023/06/10 09:05:09;;;;;;;1.70;1.57;;;31.40;40.00;;;;;;5054393;28;20543;-73
2023/06/10 09:07:36;;;;;;;1.70;1.60;;;31.00;39.20;;;;;;5054285;28;20413;-74
2023/06/10 09:10:03;;;;;;;1.97;1.77;;;29.60;40.20;;;;;;5054124;28;20519;-72
2023/06/10 09:12:29;;;;;;;1.67;1.57;;;28.70;41.90;;;;;;5054157;28;20416;-75
2023/06/10 09:14:55;;;;;;;1.87;1.77;;;28.20;45.20;;;;;;5054093;28;20436;-75
2023/06/10 09:17:22;;;;;;;1.83;1.73;;;28.00;43.90;;;;;;5054074;28;20396;-74
2023/06/10 09:19:48;;;;;;;2.03;1.70;;;29.00;42.70;;;;;;5054173;28;20766;-75
2023/06/10 09:22:14;;;;;;;1.60;1.33;;;30.40;40.90;;;;;;5054138;28;20788;-73
2023/06/10 09:24:41;;;;;;;2.17;1.97;;;29.60;50.40;;;;;;5054046;28;20458;-74
2023/06/10 09:27:08;;;;;;;1.80;1.70;;;29.80;42.20;;;;;;5053704;28;20412;-76
2023/06/10 09:29:54;;;;;;;1.50;1.33;;;29.10;41.10;;;;;;5053933;28;20446;-74
2023/06/10 09:32:21;;;;;;;1.90;1.40;;;28.30;42.60;;;;;;5053884;28;20483;-73
2023/06/10 09:34:47;;;;;;;1.90;1.77;;;28.00;46.40;;;;;;5053365;28;20504;-74
2023/06/10 09:37:13;;;;;;;2.27;2.17;;;27.50;46.90;;;;;;5053434;28;20408;-74
2023/06/10 09:39:42;;;;;;;1.67;1.57;;;27.00;45.50;;;;;;5053771;28;20462;-74
2023/06/10 09:42:18;;;;;;;1.97;1.77;;;27.00;45.10;;;;;;5053659;28;20498;-72
2023/06/10 09:44:52;;;;;;;2.47;2.27;;;28.10;52.20;;;;;;5053726;28;20409;-75
2023/06/10 09:47:22;;;;;;;2.10;1.93;;;29.40;50.00;;;;;;5053678;28;20586;-73
2023/06/10 09:49:48;;;;;;;1.67;1.57;;;29.60;49.30;;;;;;5053446;28;20451;-73
2023/06/10 09:52:14;;;;;;;1.30;1.20;;;29.00;50.90;;;;;;5053953;28;20413;-75
2023/06/10 09:54:39;;;;;;;2.20;2.00;;;27.10;67.40;;;;;;5053453;28;20412;-75
2023/06/10 09:57:11;;;;;;;1.97;1.77;;;27.10;55.40;;;;;;5053439;28;20583;-72
2023/06/10 09:59:37;;;;;;;1.40;1.30;;;26.30;56.80;;;;;;5053503;28;20212;-75
2023/06/10 10:02:04;;;;;;;1.60;1.50;;;25.90;58.60;;;;;;5053595;28;20430;-73
2023/06/10 10:04:30;;;;;;;1.50;1.40;;;25.20;65.50;;;;;;5053796;28;20422;-75
2023/06/10 10:06:55;;;;;;;1.47;1.37;;;25.20;59.70;;;;;;5053238;28;20926;-73
2023/06/10 10:09:21;;;;;;;1.50;1.40;;;25.40;59.60;;;;;;5053593;28;20235;-73
2023/06/10 10:11:48;;;;;;;1.87;1.77;;;25.40;59.10;;;;;;5053676;28;20580;-72
2023/06/10 10:14:16;;;;;;;1.60;1.50;;;25.60;60.70;;;;;;5053563;28;20180;-74
2023/06/10 10:16:42;;;;;;;1.40;1.30;;;25.80;59.00;;;;;;5053034;28;20515;-73
2023/06/10 10:19:12;;;;;;;1.40;1.30;;;26.10;59.30;;;;;;5053274;28;20443;-72
2023/06/10 10:21:43;;;;;;;2.23;2.00;;;26.40;57.70;;;;;;5053228;28;20460;-74
2023/06/10 10:24:26;;;;;;;1.33;1.13;;;26.00;57.80;;;;;;5053490;28;20386;-73
2023/06/10 10:26:58;;;;;;;1.80;1.70;;;25.90;57.30;;;;;;5053206;28;20415;-74
2023/06/10 10:29:36;;;;;;;1.50;1.43;;;25.80;57.10;;;;;;5053407;28;20386;-72
2023/06/10 10:32:03;;;;;;;2.10;1.90;;;26.00;57.50;;;;;;5053425;28;20382;-72
2023/06/10 10:35:05;;;;;;;2.30;2.20;;;27.40;59.00;;;;;;5053089;28;20404;-76
2023/06/10 10:37:31;;;;;;;1.47;1.37;;;27.30;55.60;;;;;;5052779;28;20404;-73
2023/06/10 10:39:57;;;;;;;1.57;1.47;;;27.10;56.40;;;;;;5053549;28;20412;-73
2023/06/10 10:42:24;;;;;;;2.47;2.37;;;26.80;56.70;;;;;;5053015;28;20202;-74
2023/06/10 10:44:51;;;;;;;1.80;1.70;;;26.90;55.50;;;;;;5053071;28;20507;-73
2023/06/10 10:47:20;;;;;;;1.97;1.50;;;26.90;56.00;;;;;;5055273;28;20382;-75
2023/06/10 10:49:48;;;;;;;1.53;1.43;;;26.40;55.10;;;;;;5056801;28;20460;-72
2023/06/10 10:52:14;;;;;;;3.20;2.20;;;25.90;57.00;;;;;;5056987;28;20416;-75
2023/06/10 10:54:46;;;;;;;2.97;1.57;;;25.30;75.90;;;;;;5056697;28;20513;-75
2023/06/10 10:57:18;;;;;;;1.40;1.30;;;25.30;60.60;;;;;;5056755;28;20437;-73
2023/06/10 10:59:56;;;;;;;1.40;1.30;;;25.70;56.20;;;;;;5056985;28;20431;-72
2023/06/10 11:02:40;;;;;;;1.80;1.70;;;26.20;55.10;;;;;;5056711;28;20782;-73
2023/06/10 11:05:07;;;;;;;1.43;1.33;;;26.60;51.00;;;;;;5057016;28;20403;-73
2023/06/10 11:07:34;;;;;;;1.90;1.80;;;26.90;50.50;;;;;;5056412;28;20432;-75
2023/06/10 11:10:03;;;;;;;2.87;2.57;;;26.80;52.10;;;;;;5056601;28;20418;-75
2023/06/10 11:12:44;;;;;;;1.30;1.23;;;26.60;54.00;;;;;;5056568;28;20447;-73
2023/06/10 11:15:10;;;;;;;1.63;1.53;;;26.20;50.20;;;;;;5056555;28;20845;-73
2023/06/10 11:17:35;;;;;;;1.57;1.47;;;26.00;51.70;;;;;;5056240;28;20414;-73
2023/06/10 11:20:01;;;;;;;2.43;2.03;;;26.00;52.40;;;;;;5056349;28;20178;-74
2023/06/10 11:22:27;;;;;;;1.63;1.53;;;26.20;52.40;;;;;;5056474;28;20560;-71
2023/06/10 11:24:53;;;;;;;2.13;2.03;;;26.30;51.50;;;;;;5056321;28;20186;-73
2023/06/10 11:27:24;;;;;;;1.93;1.80;;;26.40;52.90;;;;;;5056003;28;20166;-73
2023/06/10 11:30:03;;;;;;;1.93;1.83;;;26.40;53.10;;;;;;5056310;28;20378;-74
2023/06/10 11:32:33;;;;;;;1.50;1.40;;;26.20;51.10;;;;;;5056305;28;20783;-73
2023/06/10 11:34:59;;;;;;;1.47;1.37;;;26.20;52.00;;;;;;5056123;28;20435;-72
2023/06/10 11:37:25;;;;;;;1.20;1.20;;;26.40;50.10;;;;;;5055802;28;20408;-74
2023/06/10 11:39:54;;;;;;;1.63;1.53;;;26.40;51.80;;;;;;5056117;28;20465;-74
2023/06/10 11:42:21;;;;;;;1.80;1.70;;;26.20;50.40;;;;;;5055836;28;20209;-74
2023/06/10 11:44:51;;;;;;;1.80;1.40;;;26.20;55.90;;;;;;5055973;28;20562;-73
2023/06/10 11:47:17;;;;;;;1.70;1.60;;;26.10;50.40;;;;;;5055697;28;20384;-75
2023/06/10 11:49:43;;;;;;;1.60;1.50;;;26.20;52.80;;;;;;5055562;28;20927;-72
2023/06/10 11:52:08;;;;;;;2.70;2.50;;;26.00;53.80;;;;;;5055830;28;20387;-72
2023/06/10 11:54:34;;;;;;;2.40;1.40;;;26.20;59.90;;;;;;5055754;28;20228;-72
2023/06/10 11:57:00;;;;;;;1.50;1.40;;;26.40;50.20;;;;;;5055418;28;20704;-73
2023/06/10 11:59:29;;;;;;;1.70;1.30;;;26.70;49.20;;;;;;5054915;28;20253;-75
2023/06/10 12:01:56;;;;;;;2.00;1.90;;;27.10;51.80;;;;;;5055518;28;20460;-73
2023/06/10 12:04:22;;;;;;;1.50;1.40;;;27.30;48.70;;;;;;5055551;28;20925;-74
2023/06/10 12:06:52;;;;;;;2.07;1.80;;;27.20;47.90;;;;;;5055178;28;20516;-73
2023/06/10 12:09:19;;;;;;;1.80;1.40;;;27.10;49.20;;;;;;5055525;28;20261;-73
2023/06/10 12:11:48;;;;;;;1.70;1.60;;;27.20;48.10;;;;;;5055395;28;20484;-75
2023/06/10 12:14:13;;;;;;;1.53;1.43;;;26.80;46.50;;;;;;5055242;28;20408;-72
2023/06/10 12:16:39;;;;;;;2.00;1.90;;;26.60;47.20;;;;;;5055215;28;20428;-73
2023/06/10 12:19:06;;;;;;;1.93;1.37;;;26.70;47.30;;;;;;5055295;28;20170;-74
2023/06/10 12:21:34;;;;;;;1.20;1.17;;;26.80;46.50;;;;;;5055048;28;20198;-72
2023/06/10 12:24:10;;;;;;;1.20;1.10;;;27.20;48.30;;;;;;5055262;28;20915;-72
2023/06/10 12:26:47;;;;;;;1.73;1.63;;;27.50;46.10;;;;;;5054831;28;20993;-75
2023/06/10 12:29:16;;;;;;;1.53;1.30;;;27.30;50.10;;;;;;5055105;28;20371;-72
2023/06/10 12:32:01;;;;;;;1.33;1.27;;;27.10;51.40;;;;;;5055126;28;20762;-74
2023/06/10 12:34:34;;;;;;;1.70;1.43;;;26.90;52.30;;;;;;5054953;28;20401;-73
2023/06/10 12:37:01;;;;;;;1.30;1.20;;;26.70;48.50;;;;;;5054699;28;20843;-73
2023/06/10 12:39:27;;;;;;;1.77;1.50;;;26.50;48.30;;;;;;5055093;28;20496;-72
2023/06/10 12:41:53;;;;;;;1.40;1.03;;;26.40;48.80;;;;;;5054805;28;20427;-75
2023/06/10 12:44:19;;;;;;;1.90;1.80;;;26.30;50.10;;;;;;5054953;28;20378;-75
2023/06/10 12:46:44;;;;;;;1.40;1.30;;;26.10;52.80;;;;;;5054394;28;20189;-72